Time;durP1;ratioP1;P1;durP2;ratioP2;P2;SDS_P1;SDS_P2;PMS_P1;PMS_P2;Temp;Humidity;BMP_temperature;BMP_pressure;BME280_temperature;BME280_humidity;BME280_pressure;Samples;Min_cycle;Max_cycle;Signal;HPM_P1;HPM_P2
2021/12/18 00:01:33;;;;;;;23.85;13.95;;;;;;;;;;4942517;28;20687;-94
2021/12/18 00:04:04;;;;;;;23.67;13.07;;;8.70;99.90;;;;;;4945268;28;20674;-93
2021/12/18 00:06:30;;;;;;;25.35;16.20;;;8.70;99.90;;;;;;4950100;28;20202;-93
2021/12/18 00:08:56;;;;;;;25.93;15.13;;;12.20;99.90;;;;;;5002313;28;20362;-93
2021/12/18 00:11:22;;;;;;;27.23;15.53;;;;;;;;;;4961591;28;20567;-93
2021/12/18 00:13:51;;;;;;;28.58;15.50;;;8.70;99.90;;;;;;4970918;28;20429;-93
2021/12/18 00:16:20;;;;;;;30.23;16.23;;;;;;;;;;4958133;28;20201;-93
2021/12/18 00:18:50;;;;;;;28.95;15.90;;;8.80;99.90;;;;;;4978349;28;20209;-93
2021/12/18 00:21:18;;;;;;;25.83;15.10;;;;;;;;;;4945906;28;20320;-93
2021/12/18 00:23:44;;;;;;;26.05;15.57;;;;;;;;;;4963896;28;20174;-94
2021/12/18 00:26:09;;;;;;;28.73;16.97;;;9.00;99.90;;;;;;4968665;28;20664;-93
2021/12/18 00:28:35;;;;;;;26.20;15.77;;;8.60;99.90;;;;;;4980746;28;20434;-93
2021/12/18 00:31:01;;;;;;;23.70;15.53;;;9.90;99.90;;;;;;4986099;28;20233;-93
2021/12/18 00:33:28;;;;;;;29.00;16.27;;;8.10;99.90;;;;;;4990439;28;20182;-93
2021/12/18 00:35:54;;;;;;;28.75;15.88;;;;;;;;;;4951378;28;20197;-94
2021/12/18 00:38:27;;;;;;;25.90;16.30;;;;;;;;;;4964381;28;20201;-94
2021/12/18 00:43:39;;;;;;;27.00;16.02;;;9.00;99.90;;;;;;4958926;28;20544;-95
2021/12/18 00:46:05;;;;;;;24.95;15.43;;;11.80;99.90;;;;;;4947956;28;20231;-93
2021/12/18 00:48:31;;;;;;;29.43;15.67;;;8.90;99.90;;;;;;4931056;29;20226;-93
2021/12/18 00:50:57;;;;;;;27.38;16.70;;;8.90;99.90;;;;;;4927982;28;20526;-93
2021/12/18 00:53:23;;;;;;;23.37;13.73;;;8.60;99.90;;;;;;4935230;29;20191;-93
2021/12/18 00:55:51;;;;;;;33.97;18.50;;;8.90;99.90;;;;;;4940911;28;20538;-93
2021/12/18 00:58:17;;;;;;;34.15;16.95;;;9.80;99.90;;;;;;4919891;28;20436;-89
2021/12/18 01:00:43;;;;;;;30.70;16.87;;;;;;;;;;4939900;28;20581;-90
2021/12/18 01:03:17;;;;;;;29.80;14.90;;;8.90;99.90;;;;;;4943372;29;20242;-90
2021/12/18 01:05:44;;;;;;;33.58;17.75;;;8.90;99.90;;;;;;4935631;29;20202;-90
2021/12/18 01:08:10;;;;;;;29.45;15.77;;;7.90;99.90;;;;;;4941492;29;20207;-90
2021/12/18 01:13:05;;;;;;;37.10;16.85;;;;;;;;;;4919944;28;20538;-91
2021/12/18 01:15:35;;;;;;;25.00;15.45;;;9.10;99.90;;;;;;4924156;28;20207;-90
2021/12/18 01:23:33;;;;;;;27.38;16.25;;;8.80;99.90;;;;;;4922256;29;20287;-89
2021/12/18 01:25:58;;;;;;;31.00;15.95;;;9.00;99.90;;;;;;4935764;29;20248;-89
2021/12/18 01:28:25;;;;;;;28.63;16.10;;;8.80;99.90;;;;;;4931926;29;20717;-90
2021/12/18 01:30:51;;;;;;;27.70;16.98;;;8.80;99.90;;;;;;4925111;29;20298;-89
2021/12/18 01:33:17;;;;;;;32.60;18.35;;;8.40;99.90;;;;;;4918343;28;20218;-89
2021/12/18 01:35:43;;;;;;;30.93;16.17;;;8.40;99.90;;;;;;4914536;28;20204;-89
2021/12/18 01:38:10;;;;;;;27.98;17.70;;;8.30;99.90;;;;;;4923921;29;20188;-88
2021/12/18 01:40:35;;;;;;;33.90;17.17;;;8.50;99.90;;;;;;4924770;29;20423;-89
2021/12/18 01:54:12;;;;;;;33.72;17.00;;;;;;;;;;4950730;28;20174;-88
2021/12/18 01:56:38;;;;;;;33.00;18.80;;;8.40;99.90;;;;;;4938041;28;20207;-89
2021/12/18 01:59:04;;;;;;;31.20;17.30;;;;;;;;;;4957028;28;20202;-89
2021/12/18 02:01:30;;;;;;;28.83;16.60;;;;;;;;;;4960139;28;20251;-89
2021/12/18 02:03:56;;;;;;;26.27;15.40;;;;;;;;;;4971260;28;20186;-89
2021/12/18 02:06:23;;;;;;;31.13;17.20;;;8.50;99.90;;;;;;4957920;28;20492;-89
2021/12/18 02:08:49;;;;;;;25.55;16.20;;;8.50;99.90;;;;;;4966500;28;20190;-90
2021/12/18 02:11:30;;;;;;;25.47;15.70;;;8.60;99.90;;;;;;4961617;28;20241;-89
2021/12/18 02:22:01;;;;;;;25.63;16.27;;;8.40;99.90;;;;;;4965742;28;20193;-89
2021/12/18 02:24:29;;;;;;;21.00;13.23;;;9.60;99.90;;;;;;4982112;28;20189;-89
2021/12/18 02:26:56;;;;;;;28.88;16.00;;;;;;;;;;4936117;28;20262;-89
2021/12/18 02:29:21;;;;;;;23.88;15.65;;;8.30;99.90;;;;;;4977956;28;20552;-89
2021/12/18 02:31:47;;;;;;;28.10;18.17;;;;;;;;;;4958676;28;20216;-89
2021/12/18 02:34:27;;;;;;;29.50;16.73;;;8.40;99.90;;;;;;4976595;28;20182;-89
2021/12/18 02:36:58;;;;;;;28.35;15.25;;;8.50;99.90;;;;;;4976231;28;20193;-88
2021/12/18 02:39:41;;;;;;;32.05;16.17;;;8.50;99.90;;;;;;4948212;28;20179;-89
2021/12/18 02:42:19;;;;;;;29.38;16.95;;;8.30;99.90;;;;;;4939528;28;20225;-88
2021/12/18 02:44:45;;;;;;;29.20;14.75;;;8.40;99.90;;;;;;4938760;28;20643;-89
2021/12/18 02:47:14;;;;;;;30.05;16.58;;;8.80;99.90;;;;;;4918774;28;20198;-89
2021/12/18 02:49:51;;;;;;;29.25;16.27;;;7.90;99.90;;;;;;4919061;29;20206;-89
2021/12/18 02:52:28;;;;;;;26.02;16.02;;;8.20;99.90;;;;;;4920724;29;20543;-89
2021/12/18 02:54:53;;;;;;;26.70;15.25;;;;;;;;;;4923656;29;20633;-89
2021/12/18 02:57:19;;;;;;;24.23;14.33;;;;;;;;;;4921089;29;20179;-89
2021/12/18 02:59:48;;;;;;;21.37;13.73;;;8.60;99.90;;;;;;4927481;29;20560;-89
2021/12/18 03:02:19;;;;;;;23.80;15.57;;;8.60;99.90;;;;;;4929478;29;20423;-89
2021/12/18 03:04:56;;;;;;;25.15;14.10;;;8.60;99.90;;;;;;4921157;29;20195;-89
2021/12/18 03:07:24;;;;;;;22.58;13.88;;;;;;;;;;4918152;29;20210;-89
2021/12/18 03:23:40;;;;;;;25.80;15.52;;;8.00;99.90;;;;;;4922715;29;20184;-89
2021/12/18 03:26:12;;;;;;;26.95;15.00;;;8.30;99.90;;;;;;4917307;29;20196;-89
2021/12/18 03:28:41;;;;;;;19.48;12.75;;;8.60;99.90;;;;;;4928982;29;20195;-90
2021/12/18 03:31:08;;;;;;;20.33;12.27;;;;;;;;;;4933953;29;20288;-89
2021/12/18 03:33:39;;;;;;;17.77;12.40;;;8.30;99.90;;;;;;4926270;29;20570;-89
2021/12/18 03:36:07;;;;;;;15.75;10.90;;;;;;;;;;4923128;28;20225;-90
2021/12/18 03:38:33;;;;;;;19.23;11.82;;;8.20;99.90;;;;;;4921713;28;20186;-90
2021/12/18 03:41:05;;;;;;;19.73;13.70;;;8.10;99.90;;;;;;4918672;28;20203;-89
2021/12/18 03:43:30;;;;;;;19.00;11.40;;;7.30;99.90;;;;;;4927994;29;20448;-89
2021/12/18 03:45:56;;;;;;;18.83;10.90;;;7.00;99.90;;;;;;4956265;28;20263;-89
2021/12/18 03:48:22;;;;;;;13.03;9.23;;;7.10;99.90;;;;;;5001566;28;20198;-90
2021/12/18 03:50:49;;;;;;;16.00;9.90;;;;;;;;;;4973344;28;20225;-89
2021/12/18 03:53:15;;;;;;;16.75;10.95;;;;;;;;;;5008083;28;20208;-90
2021/12/18 03:55:41;;;;;;;14.47;9.37;;;;;;;;;;4965645;28;20194;-90
2021/12/18 03:58:10;;;;;;;13.02;9.93;;;;;;;;;;4998459;28;20704;-90
2021/12/18 04:00:35;;;;;;;14.60;10.70;;;11.40;99.90;;;;;;4970480;28;20214;-91
2021/12/18 04:03:02;;;;;;;14.47;9.60;;;;;;;;;;4962224;28;20186;-90
2021/12/18 04:05:28;;;;;;;13.05;9.35;;;;;;;;;;5007152;28;20682;-91
2021/12/18 04:08:08;;;;;;;15.27;9.50;;;8.20;99.90;;;;;;5018438;28;20226;-90
2021/12/18 04:10:34;;;;;;;15.18;9.82;;;7.60;99.90;;;;;;4958866;28;20483;-89
2021/12/18 04:13:00;;;;;;;16.98;9.77;;;;;;;;;;4942528;28;20186;-90
2021/12/18 04:15:26;;;;;;;15.00;9.60;;;;;;;;;;4957869;28;20679;-90
2021/12/18 04:17:52;;;;;;;12.20;8.75;;;8.30;99.90;;;;;;4971081;28;20869;-90
2021/12/18 04:20:18;;;;;;;19.97;10.90;;;;;;;;;;4990428;28;20285;-90
2021/12/18 04:22:47;;;;;;;16.60;10.13;;;;;;;;;;4953196;28;20189;-91
2021/12/18 04:25:13;;;;;;;14.63;9.48;;;8.40;99.90;;;;;;4987552;28;20528;-90
2021/12/18 04:27:38;;;;;;;17.50;11.40;;;9.60;99.90;;;;;;4966162;28;20273;-90
2021/12/18 04:32:51;;;;;;;17.13;10.10;;;;;;;;;;4958270;28;20244;-90
2021/12/18 04:35:23;;;;;;;19.17;11.43;;;8.50;99.90;;;;;;4935608;28;20244;-88
2021/12/18 04:37:49;;;;;;;19.85;10.95;;;;;;;;;;4992894;28;20862;-90
2021/12/18 04:40:14;;;;;;;18.57;10.50;;;8.50;99.90;;;;;;5002694;28;20200;-90
2021/12/18 04:42:42;;;;;;;23.00;11.77;;;8.30;99.90;;;;;;4940120;28;20434;-90
2021/12/18 04:45:08;;;;;;;20.67;10.95;;;8.40;99.90;;;;;;5027489;28;20679;-90
2021/12/18 04:47:34;;;;;;;16.35;10.55;;;8.40;99.90;;;;;;4968538;28;20534;-90
2021/12/18 04:49:59;;;;;;;19.47;10.50;;;8.30;99.90;;;;;;5016171;28;20197;-90
2021/12/18 04:52:25;;;;;;;17.70;10.73;;;8.40;99.90;;;;;;4959905;28;20198;-90
2021/12/18 04:54:51;;;;;;;17.37;10.10;;;9.80;99.90;;;;;;4949274;28;20590;-90
2021/12/18 04:57:17;;;;;;;19.53;12.53;;;;;;;;;;4940180;28;20282;-90
2021/12/18 04:59:46;;;;;;;17.67;11.40;;;8.60;99.90;;;;;;5030794;28;20938;-90
2021/12/18 05:02:15;;;;;;;16.38;11.88;;;8.50;99.90;;;;;;5034223;28;20736;-90
2021/12/18 05:04:41;;;;;;;19.85;12.00;;;8.50;99.90;;;;;;5008245;28;20489;-93
2021/12/18 05:07:10;;;;;;;19.70;11.65;;;8.50;99.90;;;;;;4953619;28;20205;-93
2021/12/18 05:09:35;;;;;;;18.73;11.15;;;8.50;99.90;;;;;;4941022;28;20306;-93
2021/12/18 05:12:01;;;;;;;18.33;10.87;;;8.60;99.90;;;;;;4983242;28;20554;-93
2021/12/18 05:14:26;;;;;;;15.73;10.77;;;8.60;99.90;;;;;;4965439;28;20572;-92
2021/12/18 05:16:52;;;;;;;25.20;11.33;;;8.10;99.90;;;;;;4941391;28;20210;-93
2021/12/18 05:19:17;;;;;;;16.53;10.27;;;8.50;99.90;;;;;;4937380;28;20190;-93
2021/12/18 05:21:49;;;;;;;22.53;11.00;;;8.50;99.90;;;;;;4941869;28;20268;-93
2021/12/18 05:24:15;;;;;;;20.48;11.57;;;8.20;99.90;;;;;;4941231;28;20183;-93
2021/12/18 05:26:41;;;;;;;20.50;11.75;;;8.20;99.90;;;;;;4970293;28;20195;-92
2021/12/18 05:29:06;;;;;;;19.17;10.93;;;11.90;99.90;;;;;;4981244;28;20784;-93
2021/12/18 05:31:33;;;;;;;19.00;11.13;;;8.40;99.90;;;;;;4966178;28;20210;-93
2021/12/18 05:34:01;;;;;;;24.85;11.13;;;10.70;99.90;;;;;;5033829;28;20185;-93
2021/12/18 05:36:34;;;;;;;26.60;11.70;;;8.00;99.90;;;;;;4957485;28;20681;-93
2021/12/18 05:39:07;;;;;;;22.13;11.73;;;9.40;99.90;;;;;;4949869;28;20183;-93
2021/12/18 05:41:33;;;;;;;19.45;10.27;;;;;;;;;;4947650;28;20613;-93
2021/12/18 05:44:00;;;;;;;20.57;10.60;;;;;;;;;;4982619;28;20226;-93
2021/12/18 05:46:26;;;;;;;24.33;10.45;;;8.50;99.90;;;;;;4995433;28;20491;-93
2021/12/18 05:48:52;;;;;;;24.73;10.43;;;11.30;99.90;;;;;;4994391;28;20189;-91
2021/12/18 05:51:18;;;;;;;21.53;12.50;;;;;;;;;;4970986;28;20222;-93
2021/12/18 05:53:44;;;;;;;20.88;11.15;;;8.50;99.90;;;;;;4955855;28;20186;-92
2021/12/18 05:56:10;;;;;;;25.92;12.07;;;;;;;;;;4980142;28;20194;-92
2021/12/18 05:58:36;;;;;;;22.98;11.90;;;;;;;;;;4969224;28;20179;-92
2021/12/18 06:01:02;;;;;;;20.45;12.10;;;8.30;99.90;;;;;;4998656;28;20197;-93
2021/12/18 06:03:28;;;;;;;25.57;12.47;;;;;;;;;;4960622;28;20239;-92
2021/12/18 06:05:54;;;;;;;29.30;12.52;;;;;;;;;;4969486;28;20450;-93
2021/12/18 06:08:20;;;;;;;21.97;12.10;;;8.40;99.90;;;;;;4956631;28;20557;-93
2021/12/18 06:10:51;;;;;;;25.53;11.73;;;7.40;99.90;;;;;;4972269;28;20485;-93
2021/12/18 06:13:17;;;;;;;23.42;12.20;;;7.60;99.90;;;;;;4963216;28;20716;-92
2021/12/18 06:15:44;;;;;;;26.25;11.73;;;;;;;;;;4961750;28;20226;-92
2021/12/18 06:18:10;;;;;;;29.53;14.10;;;;;;;;;;4998554;28;20686;-92
2021/12/18 06:20:38;;;;;;;21.73;11.13;;;8.30;99.90;;;;;;5034569;28;20440;-92
2021/12/18 06:23:04;;;;;;;24.15;11.77;;;8.30;99.90;;;;;;4980785;28;20438;-91
2021/12/18 06:25:30;;;;;;;25.77;12.80;;;;;;;;;;4998087;28;20751;-92
2021/12/18 06:27:56;;;;;;;28.50;12.40;;;;;;;;;;4961339;28;20192;-92
2021/12/18 06:30:22;;;;;;;25.90;12.30;;;;;;;;;;4997037;28;20473;-93
2021/12/18 06:32:50;;;;;;;27.30;13.48;;;8.30;99.90;;;;;;4964920;28;20430;-92
2021/12/18 06:35:29;;;;;;;50.53;26.27;;;11.80;99.90;;;;;;4956049;28;20221;-92
2021/12/18 06:37:55;;;;;;;31.75;13.40;;;8.40;99.90;;;;;;4974826;28;20232;-93
2021/12/18 06:40:21;;;;;;;27.93;11.73;;;;;;;;;;4981184;28;20198;-92
2021/12/18 06:42:47;;;;;;;25.40;12.17;;;8.20;99.90;;;;;;4946503;28;20182;-92
2021/12/18 06:45:13;;;;;;;24.73;12.80;;;;;;;;;;4930104;28;20460;-91
2021/12/18 06:47:41;;;;;;;31.00;13.33;;;8.30;99.90;;;;;;4925307;28;20476;-91
2021/12/18 06:50:07;;;;;;;29.63;12.93;;;9.70;99.90;;;;;;4934546;28;20711;-93
2021/12/18 06:52:33;;;;;;;30.33;16.00;;;;;;;;;;4947166;28;20183;-90
2021/12/18 06:55:00;;;;;;;34.55;14.43;;;;;;;;;;4948655;28;20670;-92
2021/12/18 06:57:26;;;;;;;25.02;11.68;;;8.40;99.90;;;;;;4936091;28;20180;-95
2021/12/18 07:00:01;;;;;;;28.00;13.97;;;9.40;99.90;;;;;;4945413;28;20198;-95
2021/12/18 07:02:27;;;;;;;32.22;14.15;;;9.70;99.90;;;;;;4948131;28;20203;-92
2021/12/18 07:04:56;;;;;;;26.00;12.73;;;8.70;99.90;;;;;;4922927;29;20199;-95
2021/12/18 07:07:22;;;;;;;27.85;13.32;;;9.20;99.90;;;;;;4922391;29;20191;-95
2021/12/18 07:09:48;;;;;;;39.07;14.60;;;;;;;;;;4923280;28;20196;-93
2021/12/18 07:12:14;;;;;;;28.92;13.18;;;8.40;99.90;;;;;;4922776;29;20721;-94
2021/12/18 07:14:41;;;;;;;31.43;13.80;;;8.50;99.90;;;;;;4926792;28;20353;-95
2021/12/18 07:17:07;;;;;;;31.50;13.85;;;;;;;;;;4931534;29;20447;-93
2021/12/18 07:19:33;;;;;;;33.60;14.57;;;;;;;;;;4249918;28;10000199;-96
2021/12/18 07:21:59;;;;;;;39.78;15.55;;;8.40;99.90;;;;;;4923487;29;20200;-95
2021/12/18 07:24:28;;;;;;;33.38;14.63;;;8.70;99.90;;;;;;4926013;28;20275;-95
2021/12/18 07:26:54;;;;;;;30.13;13.55;;;;;;;;;;4924157;29;20219;-95
2021/12/18 07:29:33;;;;;;;29.63;14.18;;;8.40;99.90;;;;;;4928333;28;20177;-94
2021/12/18 07:32:15;;;;;;;36.53;15.65;;;8.50;99.90;;;;;;4937411;28;20242;-96
2021/12/18 07:35:09;;;;;;;26.65;12.43;;;8.50;99.90;;;;;;4948921;28;20647;-96
2021/12/18 07:37:53;;;;;;;34.38;14.52;;;8.60;99.90;;;;;;4948395;29;20243;-94
2021/12/18 07:40:23;;;;;;;25.15;11.80;;;8.50;99.90;;;;;;4937865;29;20342;-96
2021/12/18 07:42:53;;;;;;;36.92;14.93;;;8.40;99.90;;;;;;4934015;29;20185;-93
2021/12/18 07:45:19;;;;;;;30.98;14.60;;;;;;;;;;4979869;28;20709;-93
2021/12/18 07:47:44;;;;;;;29.85;13.93;;;8.40;99.90;;;;;;5035243;28;20191;-93
2021/12/18 07:50:17;;;;;;;34.93;15.20;;;8.70;99.90;;;;;;5033862;28;20197;-92
2021/12/18 07:52:43;;;;;;;42.70;14.93;;;8.60;99.90;;;;;;5032257;28;20220;-93
2021/12/18 07:55:09;;;;;;;29.93;13.87;;;;;;;;;;5036739;28;20575;-95
2021/12/18 07:57:36;;;;;;;32.00;15.02;;;8.50;99.90;;;;;;5042262;28;20442;-89
2021/12/18 08:00:08;;;;;;;32.38;13.85;;;8.40;99.90;;;;;;5022962;28;20275;-93
2021/12/18 08:02:34;;;;;;;33.55;13.90;;;;;;;;;;5026002;28;20194;-93
2021/12/18 08:05:00;;;;;;;33.67;14.48;;;;;;;;;;5053300;28;20214;-93
2021/12/18 08:07:28;;;;;;;35.27;15.00;;;8.40;99.90;;;;;;5061485;28;20180;-92
2021/12/18 08:10:04;;;;;;;30.13;12.93;;;8.30;99.90;;;;;;5044973;28;20465;-93
2021/12/18 08:12:36;;;;;;;30.98;14.88;;;9.20;99.90;;;;;;5043294;28;20404;-92
2021/12/18 08:15:04;;;;;;;40.22;14.77;;;6.80;99.90;;;;;;5040729;28;20211;-92
2021/12/18 08:17:30;;;;;;;38.10;14.70;;;8.30;99.90;;;;;;5018754;28;20250;-94
2021/12/18 08:19:57;;;;;;;28.70;12.80;;;10.90;99.90;;;;;;5045277;28;20199;-95
2021/12/18 08:22:23;;;;;;;28.98;13.32;;;;;;;;;;5037414;28;20353;-92
2021/12/18 08:24:49;;;;;;;32.47;13.48;;;8.40;99.90;;;;;;5077870;28;20465;-91
2021/12/18 08:27:21;;;;;;;34.20;14.27;;;8.50;99.90;;;;;;5052189;28;20264;-94
2021/12/18 08:29:53;;;;;;;33.47;14.90;;;8.20;99.90;;;;;;5032489;28;20188;-91
2021/12/18 08:32:19;;;;;;;30.13;13.20;;;9.00;99.90;;;;;;5037296;28;20307;-93
2021/12/18 08:34:45;;;;;;;35.58;14.27;;;8.50;99.90;;;;;;5042823;28;20195;-91
2021/12/18 08:37:11;;;;;;;32.85;13.80;;;8.40;99.90;;;;;;5022498;28;20196;-94
2021/12/18 08:39:53;;;;;;;30.17;13.37;;;;;;;;;;5040781;28;20265;-92
2021/12/18 08:43:03;;;;;;;31.13;12.50;;;6.70;99.90;;;;;;5032506;28;20456;-94
2021/12/18 08:45:36;;;;;;;37.08;14.80;;;10.10;99.90;;;;;;5023301;28;20231;-93
2021/12/18 08:48:02;;;;;;;26.20;14.80;;;8.60;99.90;;;;;;5044440;28;20195;-92
2021/12/18 08:50:47;;;;;;;;;;;;;;;;;;;;;
2021/12/18 08:53:45;;;;;;;36.88;14.18;;;8.60;99.90;;;;;;5027473;28;20188;-94
2021/12/18 09:02:04;;;;;;;28.77;12.27;;;;;;;;;;4691136;28;10001935;-86
2021/12/18 09:04:38;;;;;;;31.60;12.57;;;9.10;99.90;;;;;;5040387;28;20525;-89
2021/12/18 09:07:28;;;;;;;33.40;12.90;;;8.70;99.90;;;;;;5036708;28;20187;-86
2021/12/18 09:10:14;;;;;;;28.52;13.32;;;8.20;99.90;;;;;;5036135;28;20234;-89
2021/12/18 09:13:01;;;;;;;33.95;14.48;;;8.70;99.90;;;;;;5040937;28;20283;-88
2021/12/18 09:15:28;;;;;;;29.77;13.90;;;8.70;99.90;;;;;;5035650;28;20188;-88
2021/12/18 09:17:56;;;;;;;31.13;12.80;;;8.60;99.90;;;;;;5038048;28;20317;-89
2021/12/18 09:20:34;;;;;;;35.78;15.00;;;8.70;99.90;;;;;;5037753;28;20176;-89
2021/12/18 09:23:10;;;;;;;34.00;14.25;;;8.20;99.90;;;;;;5045434;28;20172;-86
2021/12/18 09:25:39;;;;;;;37.80;13.85;;;8.60;99.90;;;;;;5046410;28;20200;-82
2021/12/18 09:28:05;;;;;;;40.30;16.38;;;8.50;99.90;;;;;;5047695;28;20176;-86
2021/12/18 09:30:36;;;;;;;31.15;13.38;;;8.60;99.90;;;;;;5048039;28;20203;-86
2021/12/18 09:33:13;;;;;;;30.80;14.95;;;8.70;99.90;;;;;;5045199;28;20186;-83
2021/12/18 09:35:40;;;;;;;31.55;13.15;;;7.70;99.90;;;;;;5043217;28;20189;-82
2021/12/18 09:38:09;;;;;;;35.15;13.95;;;8.50;99.90;;;;;;5045289;28;20613;-85
2021/12/18 09:40:42;;;;;;;35.28;14.10;;;9.30;99.90;;;;;;5043307;28;20201;-86
2021/12/18 09:43:09;;;;;;;25.33;12.32;;;8.60;99.90;;;;;;5043648;28;20184;-84
2021/12/18 09:45:50;;;;;;;38.80;15.25;;;12.20;99.90;;;;;;5044861;28;20194;-86
2021/12/18 09:48:19;;;;;;;28.67;11.52;;;7.90;99.90;;;;;;5041432;28;20212;-87
2021/12/18 09:51:14;;;;;;;32.75;13.15;;;9.50;99.90;;;;;;5045817;28;20259;-87
2021/12/18 09:53:41;;;;;;;31.33;13.63;;;8.80;99.90;;;;;;5036104;28;20215;-86
2021/12/18 09:56:08;;;;;;;32.58;12.45;;;8.60;99.90;;;;;;5019442;28;20273;-85
2021/12/18 09:58:37;;;;;;;28.95;13.52;;;8.70;99.90;;;;;;5021312;28;20284;-87
2021/12/18 10:01:16;;;;;;;30.33;14.45;;;8.80;99.90;;;;;;4994976;28;20233;-88
2021/12/18 10:03:50;;;;;;;33.10;14.95;;;12.20;99.90;;;;;;4966210;28;20247;-87
2021/12/18 10:06:44;;;;;;;25.05;11.98;;;8.80;99.90;;;;;;4978957;28;20494;-87
2021/12/18 10:09:40;;;;;;;;;;;;;;;;;;;;;
2021/12/18 10:12:20;;;;;;;28.67;11.82;;;10.30;99.90;;;;;;4974564;28;20285;-88
2021/12/18 10:14:51;;;;;;;24.52;11.90;;;9.00;99.90;;;;;;4962220;28;20222;-86
2021/12/18 10:17:32;;;;;;;25.95;13.27;;;10.00;99.90;;;;;;4945680;29;20781;-84
2021/12/18 10:20:12;;;;;;;25.15;11.02;;;10.30;99.90;;;;;;4944934;28;20619;-85
2021/12/18 10:22:53;;;;;;;23.60;13.18;;;8.90;99.90;;;;;;4938968;28;20238;-87
2021/12/18 10:25:30;;;;;;;26.60;11.63;;;8.80;99.90;;;;;;4960727;29;20322;-87
2021/12/18 10:28:15;;;;;;;30.58;12.95;;;8.90;99.90;;;;;;4960448;28;20182;-88
2021/12/18 10:34:20;;;;;;;26.27;11.88;;;8.80;99.90;;;;;;4971455;28;20274;-85
2021/12/18 10:37:32;;;;;;;24.77;11.48;;;8.80;99.90;;;;;;4940297;29;20499;-85
2021/12/18 10:40:04;;;;;;;32.08;13.07;;;8.40;99.90;;;;;;4967505;28;20193;-85
2021/12/18 10:42:35;;;;;;;26.38;12.20;;;9.60;99.90;;;;;;4985275;22;20305;-81
2021/12/18 10:45:14;;;;;;;32.20;12.93;;;8.90;99.90;;;;;;4952031;28;20231;-85
2021/12/18 10:47:42;;;;;;;25.83;12.60;;;9.40;99.90;;;;;;5044957;28;20277;-87
2021/12/18 10:50:40;;;;;;;21.15;12.93;;;9.00;99.90;;;;;;4985998;28;20194;-88
2021/12/18 10:53:17;;;;;;;23.75;11.38;;;8.90;99.90;;;;;;4977327;28;20212;-84
2021/12/18 10:55:43;;;;;;;22.50;12.35;;;;;;;;;;4952555;28;20310;-84
2021/12/18 10:58:11;;;;;;;18.57;11.90;;;9.40;99.90;;;;;;4979679;28;20208;-85
2021/12/18 11:00:43;;;;;;;20.80;12.07;;;8.80;99.90;;;;;;4987005;28;20467;-89
2021/12/18 11:03:28;;;;;;;19.08;12.20;;;8.90;99.90;;;;;;4957270;28;20487;-88
2021/12/18 11:06:20;;;;;;;23.85;14.07;;;9.20;99.90;;;;;;5005765;28;20182;-85
2021/12/18 11:09:06;;;;;;;20.55;12.15;;;9.20;99.90;;;;;;4949315;28;20221;-87
2021/12/18 11:14:40;;;;;;;28.75;13.20;;;9.10;99.90;;;;;;4981476;28;20189;-89
2021/12/18 11:17:15;;;;;;;20.13;12.13;;;8.10;99.90;;;;;;4960167;28;20190;-89
2021/12/18 11:19:43;;;;;;;17.95;12.07;;;9.00;99.90;;;;;;5241284;22;20197;-84
2021/12/18 11:22:14;;;;;;;22.27;12.30;;;9.10;99.90;;;;;;5069188;28;20186;-87
2021/12/18 11:25:05;;;;;;;22.00;12.68;;;9.40;99.90;;;;;;5051021;28;20448;-85
2021/12/18 11:27:42;;;;;;;23.70;13.02;;;8.50;99.90;;;;;;5038886;28;20267;-88
2021/12/18 11:30:13;;;;;;;19.80;12.50;;;12.20;99.90;;;;;;5027408;28;20237;-86
2021/12/18 11:32:42;;;;;;;19.08;12.32;;;12.70;99.90;;;;;;5045149;28;20203;-85
2021/12/18 11:35:15;;;;;;;20.55;12.95;;;6.70;99.90;;;;;;5036068;28;20275;-84
2021/12/18 11:37:41;;;;;;;17.42;13.10;;;;;;;;;;5013414;28;20195;-87
2021/12/18 11:40:09;;;;;;;16.07;12.30;;;9.20;99.90;;;;;;5017874;28;20176;-86
2021/12/18 11:42:35;;;;;;;15.52;12.30;;;9.20;99.90;;;;;;5014378;28;20432;-85
2021/12/18 11:45:05;;;;;;;19.37;14.00;;;9.10;99.90;;;;;;5014367;28;20192;-87
2021/12/18 11:47:44;;;;;;;28.80;16.93;;;9.40;99.90;;;;;;5013836;28;20438;-86
2021/12/18 11:50:19;;;;;;;22.23;14.10;;;10.10;99.90;;;;;;5023179;28;20430;-84
2021/12/18 11:53:13;;;;;;;19.27;12.40;;;8.40;99.90;;;;;;5005922;28;20437;-81
2021/12/18 11:55:57;;;;;;;22.65;15.93;;;9.00;99.90;;;;;;5010209;28;20446;-84
2021/12/18 11:58:35;;;;;;;16.80;13.00;;;10.60;99.90;;;;;;5004164;28;20207;-81
2021/12/18 12:01:05;;;;;;;16.65;11.73;;;9.50;99.90;;;;;;5007408;28;21260;-79
2021/12/18 12:04:00;;;;;;;22.60;15.43;;;9.80;99.90;;;;;;5029790;28;20191;-87
2021/12/18 12:07:29;;;;;;;15.30;11.60;;;9.20;99.90;;;;;;5044570;28;20210;-88
2021/12/18 12:13:24;;;;;;;18.90;13.00;;;10.40;99.90;;;;;;5057664;28;20199;-89
2021/12/18 12:15:52;;;;;;;21.10;13.65;;;9.00;99.90;;;;;;5064745;28;20263;-85
2021/12/18 12:18:18;;;;;;;23.92;13.43;;;;;;;;;;5053518;28;20194;-84
2021/12/18 12:24:02;;;;;;;24.00;17.35;;;9.20;99.90;;;;;;5072967;28;20197;-89
2021/12/18 12:26:27;;;;;;;27.17;15.85;;;9.10;99.90;;;;;;5057417;28;20204;-86
2021/12/18 12:29:18;;;;;;;30.37;18.10;;;8.00;99.90;;;;;;5070844;28;20229;-88
2021/12/18 12:32:00;;;;;;;25.75;16.50;;;9.00;99.90;;;;;;5058169;28;20223;-87
2021/12/18 12:34:39;;;;;;;33.55;17.55;;;9.10;99.90;;;;;;5052179;28;20175;-87
2021/12/18 12:37:41;;;;;;;24.98;15.15;;;9.90;99.90;;;;;;5048284;28;20194;-86
2021/12/18 12:52:00;;;;;;;31.48;17.00;;;9.00;99.90;;;;;;5021028;28;20524;-85
2021/12/18 12:55:10;;;;;;;;;;;;;;;;;;;;;
2021/12/18 12:57:55;;;;;;;26.47;15.50;;;8.90;99.90;;;;;;5028376;28;20238;-86
2021/12/18 13:00:50;;;;;;;29.02;15.82;;;8.30;99.90;;;;;;5009015;28;20423;-84
2021/12/18 13:03:18;;;;;;;27.17;15.68;;;12.90;99.90;;;;;;4997223;28;20202;-81
2021/12/18 13:06:00;;;;;;;22.80;14.43;;;9.20;99.90;;;;;;5020936;28;20252;-82
2021/12/18 13:08:36;;;;;;;25.52;15.77;;;8.90;99.90;;;;;;5024225;28;20199;-85
2021/12/18 13:11:02;;;;;;;20.83;12.05;;;8.90;99.90;;;;;;5015162;28;20287;-89
2021/12/18 13:13:34;;;;;;;23.25;13.07;;;8.80;99.90;;;;;;5010682;28;20192;-88
2021/12/18 13:16:15;;;;;;;20.67;12.48;;;10.10;99.90;;;;;;5032005;28;20180;-89
2021/12/18 13:18:58;;;;;;;23.90;12.95;;;8.90;99.90;;;;;;5022580;28;20194;-84
2021/12/18 13:21:39;;;;;;;19.15;12.60;;;8.90;99.90;;;;;;5012633;28;20643;-84
2021/12/18 13:24:31;;;;;;;18.73;11.65;;;9.50;99.90;;;;;;5039282;28;20193;-86
2021/12/18 13:26:58;;;;;;;20.15;12.27;;;;;;;;;;4942743;29;20203;-86
2021/12/18 13:29:32;;;;;;;15.77;10.93;;;8.90;99.90;;;;;;5022264;28;20184;-86
2021/12/18 13:32:06;;;;;;;16.77;10.57;;;10.20;99.90;;;;;;5026338;28;20245;-88
2021/12/18 13:34:41;;;;;;;15.80;8.88;;;8.70;99.90;;;;;;5032437;28;20193;-88
2021/12/18 13:37:19;;;;;;;14.07;8.32;;;9.90;99.90;;;;;;5036443;28;20183;-91
2021/12/18 13:39:49;;;;;;;10.50;7.80;;;9.10;99.90;;;;;;5006651;28;20243;-83
2021/12/18 13:42:22;;;;;;;14.82;9.35;;;8.50;99.90;;;;;;5020801;28;20183;-85
2021/12/18 13:45:01;;;;;;;9.35;7.80;;;8.80;99.90;;;;;;5028517;28;20888;-83
2021/12/18 13:47:46;;;;;;;14.00;8.55;;;8.80;99.90;;;;;;5010891;28;20268;-87
2021/12/18 13:50:22;;;;;;;13.13;8.18;;;9.20;99.90;;;;;;4759920;28;10000523;-88
2021/12/18 13:53:12;;;;;;;5.63;5.22;;;8.80;99.90;;;;;;5013226;28;20435;-86
2021/12/18 13:55:51;;;;;;;4.63;4.40;;;8.70;99.90;;;;;;5032386;28;20291;-89
2021/12/18 13:58:28;;;;;;;3.97;3.80;;;11.70;99.90;;;;;;5008860;28;20198;-86
2021/12/18 14:03:55;;;;;;;3.92;3.65;;;8.50;99.90;;;;;;5012290;28;20184;-83
2021/12/18 14:07:02;;;;;;;4.35;3.97;;;8.70;99.90;;;;;;5028675;28;20194;-88
2021/12/18 14:09:31;;;;;;;4.70;3.80;;;8.90;99.90;;;;;;5023238;28;20191;-81
2021/12/18 14:12:26;;;;;;;3.83;3.53;;;8.40;99.90;;;;;;5003733;28;20323;-87
2021/12/18 14:14:54;;;;;;;3.70;3.40;;;8.30;99.90;;;;;;4956125;28;20187;-85
2021/12/18 14:17:45;;;;;;;11.98;10.40;;;8.40;99.90;;;;;;5005045;28;20335;-85
2021/12/18 14:20:13;;;;;;;6.93;6.40;;;8.40;99.90;;;;;;5026856;28;20230;-86
2021/12/18 14:22:57;;;;;;;5.50;4.90;;;8.40;99.90;;;;;;5020357;28;20747;-88
2021/12/18 14:25:38;;;;;;;4.90;4.60;;;8.70;99.90;;;;;;5014302;28;20374;-85
2021/12/18 14:28:04;;;;;;;8.48;4.88;;;8.30;99.90;;;;;;5008373;28;20195;-87
2021/12/18 14:30:45;;;;;;;7.77;5.43;;;8.40;99.90;;;;;;5036819;28;20196;-86
2021/12/18 14:33:20;;;;;;;11.63;6.85;;;11.10;99.90;;;;;;5003851;28;20192;-87
2021/12/18 14:36:30;;;;;;;8.40;6.60;;;9.60;99.90;;;;;;5001023;28;20202;-87
2021/12/18 14:40:15;;;;;;;;;;;;;;;;;;;;;
2021/12/18 14:42:57;;;;;;;;;;;;;;;;;;;;;
2021/12/18 14:45:35;;;;;;;8.57;7.30;;;8.00;99.90;;;;;;5010905;28;20214;-85
2021/12/18 14:48:29;;;;;;;9.55;7.97;;;7.90;99.90;;;;;;5001661;28;20253;-90
2021/12/18 14:51:33;;;;;;;9.85;8.93;;;8.10;99.90;;;;;;4970656;28;20238;-88